ซานฟรานซิสโก, CA

07:35 AM PDT วัน สิงหาคม 29, 2016 (GMT -0700)
North Mission (Valencia and Market) | | Change Station

Elev 62 ft 37.77 °N, 122.42 °W | Updated 4 minutes ago

Overcast
มีเมฆคลุมไปทั่ว
57.1 ฟาเรนไฮน์
Feels Like 57.1 ฟาเรนไฮน์
N
4.0
ลม ความผันแปร ลม from ทางทิศตะวันตกเฉียงใต้
Gusts 6.0 mph

วันนี้
High -- | Low -- ฟาเรนไฮน์
--% Chance of Precip.
Yesterday
High -- | Low -- ฟาเรนไฮน์
Precip. -- นิ้ว
ความดัน 30.10 นิ้ว
ทัศนวิสัย 10.0 ไมล์
เมฆ Few 800 ft
มีเมฆคลุมไปทั่ว 1400 ft
อุณหภูมิที่อากาศอาจจับตัวเป็นหยาดน้ำค้าง 53 ฟาเรนไฮน์
ความชื้น 87%
Rainfall 0.00 นิ้ว
Snow Depth Not available.
6:37 AM 7:42 PM
เดือนเสี้ยว, 8% visible
METAR KSFO 291356Z 28008KT 10SM FEW008 OVC014 15/11 A3010 RMK AO2 SLP193 T01500106
ความดัน 30.10 นิ้ว
ทัศนวิสัย 10.0 ไมล์
เมฆ Few 800 ft
มีเมฆคลุมไปทั่ว 1400 ft
อุณหภูมิที่อากาศอาจจับตัวเป็นหยาดน้ำค้าง 53 ฟาเรนไฮน์
ความชื้น 87%
Rainfall 0.00 นิ้ว
Snow Depth Not available.
6:37 AM 7:42 PM
เดือนเสี้ยว, 8% visible
METAR KSFO 291356Z 28008KT 10SM FEW008 OVC014 15/11 A3010 RMK AO2 SLP193 T01500106

10-Day Weather Forecast

Almanac

ดาราศาสตร์

Aug. 29, 2016 Rise Set
Actual Time
Civil Twilight
Nautical Twilight
Astronomical Twilight
Moon
Length Of Visible Light
ความยาวของวัน
Tomorrow will be .
, % of the Moon is Illuminated

Today's Extremes

State Highs State Lows

Community

WunderPhotos

Upload Photos

1,935,830 photos uploaded!

WunderBlog® & News

Nearby

Air Quality

  Air Quality AQ Index Pollutant
Not available.

Snow Depth

Station Depth Elevation

Earthquake Activity

City Distance Mag. Time & Date
Minimum magnitude displayed is 2.5.

Coastal Water Temperatures

สถานที่ อุณหภูมิ

Stations

Nearby Weather Stations

Station Location Temp ลมหนาว อุณหภูมิที่อากาศอาจจับตัวเป็นหยาดน้ำค้าง ความชื้น ลม Precip. Elev ปรับปรุงล่าสุด Type
                   

Watches & Warnings

There are currently no watches in effect.